sensor_id;sensor_type;location;lat;lon;timestamp;temperature;humidity
13796;SHT30;40911;51.552;9.874;2022-10-31T00:00:30;11.99;92.45
13796;SHT30;40911;51.552;9.874;2022-10-31T00:02:57;12.00;92.58
13796;SHT30;40911;51.552;9.874;2022-10-31T00:05:19;11.82;93.47
13796;SHT30;40911;51.552;9.874;2022-10-31T00:07:40;11.90;92.62
13796;SHT30;40911;51.552;9.874;2022-10-31T00:10:03;11.86;93.12
13796;SHT30;40911;51.552;9.874;2022-10-31T00:12:26;11.96;92.80
13796;SHT30;40911;51.552;9.874;2022-10-31T00:14:48;11.92;92.86
13796;SHT30;40911;51.552;9.874;2022-10-31T00:17:10;11.81;93.56
13796;SHT30;40911;51.552;9.874;2022-10-31T00:19:32;11.79;93.26
13796;SHT30;40911;51.552;9.874;2022-10-31T00:21:54;11.74;93.34
13796;SHT30;40911;51.552;9.874;2022-10-31T00:24:16;11.83;93.11
13796;SHT30;40911;51.552;9.874;2022-10-31T00:26:38;11.90;93.14
13796;SHT30;40911;51.552;9.874;2022-10-31T00:28:59;11.85;92.50
13796;SHT30;40911;51.552;9.874;2022-10-31T00:31:21;11.65;94.07
13796;SHT30;40911;51.552;9.874;2022-10-31T00:33:44;11.77;93.28
13796;SHT30;40911;51.552;9.874;2022-10-31T00:36:08;11.77;93.01
13796;SHT30;40911;51.552;9.874;2022-10-31T00:38:32;11.74;93.04
13796;SHT30;40911;51.552;9.874;2022-10-31T00:40:54;11.68;93.76
13796;SHT30;40911;51.552;9.874;2022-10-31T00:43:15;11.74;93.20
13796;SHT30;40911;51.552;9.874;2022-10-31T00:45:37;11.81;92.64
13796;SHT30;40911;51.552;9.874;2022-10-31T00:47:59;11.78;92.84
13796;SHT30;40911;51.552;9.874;2022-10-31T00:50:22;11.79;93.73
13796;SHT30;40911;51.552;9.874;2022-10-31T00:52:44;11.78;92.76
13796;SHT30;40911;51.552;9.874;2022-10-31T00:55:05;11.74;92.94
13796;SHT30;40911;51.552;9.874;2022-10-31T00:57:27;11.75;93.17
13796;SHT30;40911;51.552;9.874;2022-10-31T00:59:49;11.68;92.98
13796;SHT30;40911;51.552;9.874;2022-10-31T01:02:10;11.68;93.41
13796;SHT30;40911;51.552;9.874;2022-10-31T01:04:32;11.61;93.46
13796;SHT30;40911;51.552;9.874;2022-10-31T01:06:55;11.61;93.15
13796;SHT30;40911;51.552;9.874;2022-10-31T01:09:17;11.64;93.54
13796;SHT30;40911;51.552;9.874;2022-10-31T01:11:39;11.64;93.32
13796;SHT30;40911;51.552;9.874;2022-10-31T01:14:01;11.55;93.50
13796;SHT30;40911;51.552;9.874;2022-10-31T01:16:24;11.28;94.17
13796;SHT30;40911;51.552;9.874;2022-10-31T01:18:46;11.27;94.20
13796;SHT30;40911;51.552;9.874;2022-10-31T01:21:10;11.19;94.14
13796;SHT30;40911;51.552;9.874;2022-10-31T01:23:34;11.27;94.12
13796;SHT30;40911;51.552;9.874;2022-10-31T01:26:03;11.26;93.89
13796;SHT30;40911;51.552;9.874;2022-10-31T01:28:25;11.16;94.11
13796;SHT30;40911;51.552;9.874;2022-10-31T01:30:47;11.30;93.25
13796;SHT30;40911;51.552;9.874;2022-10-31T01:33:09;11.19;93.86
13796;SHT30;40911;51.552;9.874;2022-10-31T01:35:30;11.12;93.89
13796;SHT30;40911;51.552;9.874;2022-10-31T01:37:52;11.13;94.05
13796;SHT30;40911;51.552;9.874;2022-10-31T01:40:15;11.06;94.27
13796;SHT30;40911;51.552;9.874;2022-10-31T01:42:37;10.99;94.46
13796;SHT30;40911;51.552;9.874;2022-10-31T01:44:59;11.03;94.61
13796;SHT30;40911;51.552;9.874;2022-10-31T01:47:32;11.10;94.09
13796;SHT30;40911;51.552;9.874;2022-10-31T01:49:57;11.03;94.23
13796;SHT30;40911;51.552;9.874;2022-10-31T01:52:23;10.88;95.09
13796;SHT30;40911;51.552;9.874;2022-10-31T01:54:48;10.93;94.84
13796;SHT30;40911;51.552;9.874;2022-10-31T01:57:14;10.97;94.71
13796;SHT30;40911;51.552;9.874;2022-10-31T01:59:40;10.99;94.65
13796;SHT30;40911;51.552;9.874;2022-10-31T02:02:04;10.82;94.95
13796;SHT30;40911;51.552;9.874;2022-10-31T02:04:27;10.97;94.31
13796;SHT30;40911;51.552;9.874;2022-10-31T02:06:53;10.88;94.39
13796;SHT30;40911;51.552;9.874;2022-10-31T02:09:19;11.03;93.71
13796;SHT30;40911;51.552;9.874;2022-10-31T02:11:44;10.86;94.51
13796;SHT30;40911;51.552;9.874;2022-10-31T02:14:07;10.76;94.50
13796;SHT30;40911;51.552;9.874;2022-10-31T02:16:29;10.88;94.69
13796;SHT30;40911;51.552;9.874;2022-10-31T02:18:51;10.76;94.99
13796;SHT30;40911;51.552;9.874;2022-10-31T02:21:17;10.88;94.44
13796;SHT30;40911;51.552;9.874;2022-10-31T02:24:17;10.81;94.24
13796;SHT30;40911;51.552;9.874;2022-10-31T02:27:02;10.79;94.40
13796;SHT30;40911;51.552;9.874;2022-10-31T02:32:37;10.76;94.63
13796;SHT30;40911;51.552;9.874;2022-10-31T02:35:03;10.69;94.83
13796;SHT30;40911;51.552;9.874;2022-10-31T02:37:31;10.75;94.91
13796;SHT30;40911;51.552;9.874;2022-10-31T02:40:04;10.49;95.56
13796;SHT30;40911;51.552;9.874;2022-10-31T02:42:32;10.71;94.87
13796;SHT30;40911;51.552;9.874;2022-10-31T02:45:02;10.69;94.59
13796;SHT30;40911;51.552;9.874;2022-10-31T02:47:28;10.60;94.49
13796;SHT30;40911;51.552;9.874;2022-10-31T02:49:57;10.58;94.72
13796;SHT30;40911;51.552;9.874;2022-10-31T02:52:24;10.61;94.51
13796;SHT30;40911;51.552;9.874;2022-10-31T02:54:47;10.55;94.56
13796;SHT30;40911;51.552;9.874;2022-10-31T02:57:09;10.52;95.02
13796;SHT30;40911;51.552;9.874;2022-10-31T02:59:31;10.54;94.67
13796;SHT30;40911;51.552;9.874;2022-10-31T03:02:12;10.38;95.19
13796;SHT30;40911;51.552;9.874;2022-10-31T03:05:03;10.37;95.05
13796;SHT30;40911;51.552;9.874;2022-10-31T03:07:35;10.36;95.23
13796;SHT30;40911;51.552;9.874;2022-10-31T03:10:04;10.45;95.14
13796;SHT30;40911;51.552;9.874;2022-10-31T03:12:32;10.26;95.90
13796;SHT30;40911;51.552;9.874;2022-10-31T03:15:00;10.40;95.14
13796;SHT30;40911;51.552;9.874;2022-10-31T03:17:27;10.36;94.93
13796;SHT30;40911;51.552;9.874;2022-10-31T03:19:54;10.31;95.35
13796;SHT30;40911;51.552;9.874;2022-10-31T03:22:21;10.41;94.72
13796;SHT30;40911;51.552;9.874;2022-10-31T03:24:44;10.33;94.89
13796;SHT30;40911;51.552;9.874;2022-10-31T03:27:11;10.07;95.71
13796;SHT30;40911;51.552;9.874;2022-10-31T03:29:36;10.24;95.66
13796;SHT30;40911;51.552;9.874;2022-10-31T03:32:01;10.09;96.18
13796;SHT30;40911;51.552;9.874;2022-10-31T03:34:24;10.30;95.84
13796;SHT30;40911;51.552;9.874;2022-10-31T03:36:49;10.24;95.65
13796;SHT30;40911;51.552;9.874;2022-10-31T03:39:14;10.36;94.70
13796;SHT30;40911;51.552;9.874;2022-10-31T03:41:40;10.21;95.52
13796;SHT30;40911;51.552;9.874;2022-10-31T03:44:07;10.31;94.91
13796;SHT30;40911;51.552;9.874;2022-10-31T03:46:30;10.26;94.73
13796;SHT30;40911;51.552;9.874;2022-10-31T03:48:52;10.18;94.91
13796;SHT30;40911;51.552;9.874;2022-10-31T03:51:17;10.14;95.05
13796;SHT30;40911;51.552;9.874;2022-10-31T03:53:47;10.13;95.24
13796;SHT30;40911;51.552;9.874;2022-10-31T03:56:18;10.13;95.26
13796;SHT30;40911;51.552;9.874;2022-10-31T03:58:45;10.05;94.94
13796;SHT30;40911;51.552;9.874;2022-10-31T04:01:11;10.07;95.13
13796;SHT30;40911;51.552;9.874;2022-10-31T04:03:37;10.00;95.10
13796;SHT30;40911;51.552;9.874;2022-10-31T04:06:03;9.99;95.48
13796;SHT30;40911;51.552;9.874;2022-10-31T04:08:28;9.90;95.94
13796;SHT30;40911;51.552;9.874;2022-10-31T04:10:52;9.88;95.96
13796;SHT30;40911;51.552;9.874;2022-10-31T04:13:21;10.00;95.42
13796;SHT30;40911;51.552;9.874;2022-10-31T04:15:44;9.95;95.26
13796;SHT30;40911;51.552;9.874;2022-10-31T04:18:07;10.02;94.90
13796;SHT30;40911;51.552;9.874;2022-10-31T04:20:30;9.85;96.17
13796;SHT30;40911;51.552;9.874;2022-10-31T04:22:52;9.66;96.19
13796;SHT30;40911;51.552;9.874;2022-10-31T04:25:13;9.54;97.36
13796;SHT30;40911;51.552;9.874;2022-10-31T04:27:35;9.78;96.82
13796;SHT30;40911;51.552;9.874;2022-10-31T04:29:58;9.88;96.05
13796;SHT30;40911;51.552;9.874;2022-10-31T04:32:20;9.89;95.41
13796;SHT30;40911;51.552;9.874;2022-10-31T04:34:42;9.65;96.16
13796;SHT30;40911;51.552;9.874;2022-10-31T04:37:04;9.70;96.03
13796;SHT30;40911;51.552;9.874;2022-10-31T04:39:26;9.73;96.29
13796;SHT30;40911;51.552;9.874;2022-10-31T04:41:47;9.73;96.14
13796;SHT30;40911;51.552;9.874;2022-10-31T04:44:09;9.75;96.07
13796;SHT30;40911;51.552;9.874;2022-10-31T04:46:32;9.79;96.16
13796;SHT30;40911;51.552;9.874;2022-10-31T04:48:54;9.65;96.17
13796;SHT30;40911;51.552;9.874;2022-10-31T04:51:16;9.63;96.30
13796;SHT30;40911;51.552;9.874;2022-10-31T04:53:37;9.65;96.02
13796;SHT30;40911;51.552;9.874;2022-10-31T04:55:59;9.61;95.83
13796;SHT30;40911;51.552;9.874;2022-10-31T04:58:21;9.69;95.53
13796;SHT30;40911;51.552;9.874;2022-10-31T05:00:42;9.44;96.14
13796;SHT30;40911;51.552;9.874;2022-10-31T05:03:06;9.47;96.28
13796;SHT30;40911;51.552;9.874;2022-10-31T05:05:29;9.57;95.59
13796;SHT30;40911;51.552;9.874;2022-10-31T05:07:52;9.48;95.44
13796;SHT30;40911;51.552;9.874;2022-10-31T05:10:15;9.52;95.71
13796;SHT30;40911;51.552;9.874;2022-10-31T05:12:37;9.54;95.37
13796;SHT30;40911;51.552;9.874;2022-10-31T05:14:59;9.40;96.27
13796;SHT30;40911;51.552;9.874;2022-10-31T05:17:21;9.51;95.37
13796;SHT30;40911;51.552;9.874;2022-10-31T05:19:44;9.48;95.18
13796;SHT30;40911;51.552;9.874;2022-10-31T05:22:06;9.40;95.32
13796;SHT30;40911;51.552;9.874;2022-10-31T05:24:28;9.27;95.99
13796;SHT30;40911;51.552;9.874;2022-10-31T05:26:49;9.34;95.65
13796;SHT30;40911;51.552;9.874;2022-10-31T05:29:11;9.24;95.96
13796;SHT30;40911;51.552;9.874;2022-10-31T05:31:33;9.28;95.97
13796;SHT30;40911;51.552;9.874;2022-10-31T05:33:54;9.27;96.05
13796;SHT30;40911;51.552;9.874;2022-10-31T05:36:17;9.20;96.24
13796;SHT30;40911;51.552;9.874;2022-10-31T05:38:39;9.19;96.67
13796;SHT30;40911;51.552;9.874;2022-10-31T05:41:01;9.26;95.78
13796;SHT30;40911;51.552;9.874;2022-10-31T05:43:23;9.32;95.56
13796;SHT30;40911;51.552;9.874;2022-10-31T05:45:44;9.24;95.45
13796;SHT30;40911;51.552;9.874;2022-10-31T05:48:06;9.21;95.77
13796;SHT30;40911;51.552;9.874;2022-10-31T05:50:28;9.23;96.24
13796;SHT30;40911;51.552;9.874;2022-10-31T05:52:56;9.17;96.13
13796;SHT30;40911;51.552;9.874;2022-10-31T05:55:18;9.19;96.37
13796;SHT30;40911;51.552;9.874;2022-10-31T05:57:40;9.10;96.46
13796;SHT30;40911;51.552;9.874;2022-10-31T06:00:02;9.14;96.19
13796;SHT30;40911;51.552;9.874;2022-10-31T06:02:24;9.19;96.30
13796;SHT30;40911;51.552;9.874;2022-10-31T06:04:47;9.17;96.62
13796;SHT30;40911;51.552;9.874;2022-10-31T06:07:09;9.11;96.78
13796;SHT30;40911;51.552;9.874;2022-10-31T06:09:32;9.14;96.27
13796;SHT30;40911;51.552;9.874;2022-10-31T06:11:54;9.14;96.22
13796;SHT30;40911;51.552;9.874;2022-10-31T06:14:15;9.06;95.97
13796;SHT30;40911;51.552;9.874;2022-10-31T06:16:37;9.13;96.11
13796;SHT30;40911;51.552;9.874;2022-10-31T06:18:58;8.97;96.38
13796;SHT30;40911;51.552;9.874;2022-10-31T06:21:20;9.02;96.34
13796;SHT30;40911;51.552;9.874;2022-10-31T06:23:42;9.10;95.74
13796;SHT30;40911;51.552;9.874;2022-10-31T06:26:05;9.06;96.13
13796;SHT30;40911;51.552;9.874;2022-10-31T06:28:27;9.13;96.14
13796;SHT30;40911;51.552;9.874;2022-10-31T06:30:48;9.10;96.32
13796;SHT30;40911;51.552;9.874;2022-10-31T06:33:10;9.00;96.57
13796;SHT30;40911;51.552;9.874;2022-10-31T06:35:32;9.14;96.34
13796;SHT30;40911;51.552;9.874;2022-10-31T06:37:54;9.20;96.07
13796;SHT30;40911;51.552;9.874;2022-10-31T06:40:16;9.21;96.19
13796;SHT30;40911;51.552;9.874;2022-10-31T06:42:39;9.19;96.38
13796;SHT30;40911;51.552;9.874;2022-10-31T06:45:01;9.28;96.16
13796;SHT30;40911;51.552;9.874;2022-10-31T06:47:22;9.34;96.01
13796;SHT30;40911;51.552;9.874;2022-10-31T06:49:44;9.37;96.67
13796;SHT30;40911;51.552;9.874;2022-10-31T06:52:06;9.47;96.28
13796;SHT30;40911;51.552;9.874;2022-10-31T06:54:27;9.54;96.14
13796;SHT30;40911;51.552;9.874;2022-10-31T06:56:49;9.66;95.60
13796;SHT30;40911;51.552;9.874;2022-10-31T06:59:12;9.78;95.74
13796;SHT30;40911;51.552;9.874;2022-10-31T07:01:34;9.83;96.45
13796;SHT30;40911;51.552;9.874;2022-10-31T07:03:56;10.02;95.99
13796;SHT30;40911;51.552;9.874;2022-10-31T07:06:17;10.14;95.76
13796;SHT30;40911;51.552;9.874;2022-10-31T07:08:39;10.27;95.14
13796;SHT30;40911;51.552;9.874;2022-10-31T07:11:01;10.33;95.37
13796;SHT30;40911;51.552;9.874;2022-10-31T07:13:23;10.41;94.96
13796;SHT30;40911;51.552;9.874;2022-10-31T07:15:47;10.45;96.11
13796;SHT30;40911;51.552;9.874;2022-10-31T07:18:10;10.62;95.26
13796;SHT30;40911;51.552;9.874;2022-10-31T07:20:33;10.75;96.15
13796;SHT30;40911;51.552;9.874;2022-10-31T07:22:55;10.83;95.31
13796;SHT30;40911;51.552;9.874;2022-10-31T07:25:16;10.85;95.86
13796;SHT30;40911;51.552;9.874;2022-10-31T07:27:38;10.85;96.16
13796;SHT30;40911;51.552;9.874;2022-10-31T07:30:00;11.03;95.27
13796;SHT30;40911;51.552;9.874;2022-10-31T07:32:23;11.09;95.42
13796;SHT30;40911;51.552;9.874;2022-10-31T07:34:45;11.09;95.35
13796;SHT30;40911;51.552;9.874;2022-10-31T07:37:08;11.39;95.01
13796;SHT30;40911;51.552;9.874;2022-10-31T07:39:29;11.28;94.44
13796;SHT30;40911;51.552;9.874;2022-10-31T07:41:51;11.47;94.05
13796;SHT30;40911;51.552;9.874;2022-10-31T07:44:13;11.72;93.93
13796;SHT30;40911;51.552;9.874;2022-10-31T07:46:34;11.95;93.92
13796;SHT30;40911;51.552;9.874;2022-10-31T07:48:57;11.93;93.94
13796;SHT30;40911;51.552;9.874;2022-10-31T07:51:19;12.05;93.53
13796;SHT30;40911;51.552;9.874;2022-10-31T07:53:41;12.00;94.07
13796;SHT30;40911;51.552;9.874;2022-10-31T07:56:03;11.77;94.14
13796;SHT30;40911;51.552;9.874;2022-10-31T07:58:25;12.15;93.71
13796;SHT30;40911;51.552;9.874;2022-10-31T08:00:46;12.23;93.41
13796;SHT30;40911;51.552;9.874;2022-10-31T08:03:10;12.36;93.04
13796;SHT30;40911;51.552;9.874;2022-10-31T08:05:34;12.41;93.34
13796;SHT30;40911;51.552;9.874;2022-10-31T08:07:56;12.58;92.84
13796;SHT30;40911;51.552;9.874;2022-10-31T08:10:18;12.51;92.93
13796;SHT30;40911;51.552;9.874;2022-10-31T08:12:40;12.40;93.00
13796;SHT30;40911;51.552;9.874;2022-10-31T08:15:02;12.40;92.99
13796;SHT30;40911;51.552;9.874;2022-10-31T08:17:24;12.46;92.58
13796;SHT30;40911;51.552;9.874;2022-10-31T08:19:45;12.81;92.47
13796;SHT30;40911;51.552;9.874;2022-10-31T08:22:08;12.84;92.51
13796;SHT30;40911;51.552;9.874;2022-10-31T08:24:30;12.89;92.27
13796;SHT30;40911;51.552;9.874;2022-10-31T08:26:52;13.08;91.75
13796;SHT30;40911;51.552;9.874;2022-10-31T08:29:14;13.18;91.44
13796;SHT30;40911;51.552;9.874;2022-10-31T08:31:36;13.19;91.89
13796;SHT30;40911;51.552;9.874;2022-10-31T08:33:57;13.12;91.73
13796;SHT30;40911;51.552;9.874;2022-10-31T08:36:20;13.20;91.76
13796;SHT30;40911;51.552;9.874;2022-10-31T08:38:43;13.48;91.35
13796;SHT30;40911;51.552;9.874;2022-10-31T08:41:05;13.48;90.84
13796;SHT30;40911;51.552;9.874;2022-10-31T08:43:27;13.61;90.81
13796;SHT30;40911;51.552;9.874;2022-10-31T08:45:49;13.54;91.16
13796;SHT30;40911;51.552;9.874;2022-10-31T08:48:12;13.81;90.47
13796;SHT30;40911;51.552;9.874;2022-10-31T08:50:35;13.68;90.73
13796;SHT30;40911;51.552;9.874;2022-10-31T08:53:01;13.54;90.69
13796;SHT30;40911;51.552;9.874;2022-10-31T08:55:24;13.89;91.60
13796;SHT30;40911;51.552;9.874;2022-10-31T08:57:46;14.20;90.42
13796;SHT30;40911;51.552;9.874;2022-10-31T09:00:09;14.34;90.48
13796;SHT30;40911;51.552;9.874;2022-10-31T09:02:33;14.65;89.59
13796;SHT30;40911;51.552;9.874;2022-10-31T09:04:55;14.67;89.06
13796;SHT30;40911;51.552;9.874;2022-10-31T09:07:20;14.59;89.30
13796;SHT30;40911;51.552;9.874;2022-10-31T09:09:41;14.56;88.76
13796;SHT30;40911;51.552;9.874;2022-10-31T09:12:05;14.59;89.91
13796;SHT30;40911;51.552;9.874;2022-10-31T09:14:27;14.87;88.88
13796;SHT30;40911;51.552;9.874;2022-10-31T09:16:48;14.74;88.92
13796;SHT30;40911;51.552;9.874;2022-10-31T09:19:10;14.91;88.57
13796;SHT30;40911;51.552;9.874;2022-10-31T09:21:32;15.19;89.24
13796;SHT30;40911;51.552;9.874;2022-10-31T09:23:53;15.46;88.94
13796;SHT30;40911;51.552;9.874;2022-10-31T09:26:16;15.36;88.09
13796;SHT30;40911;51.552;9.874;2022-10-31T09:28:40;15.39;87.29
13796;SHT30;40911;51.552;9.874;2022-10-31T09:31:05;15.43;87.78
13796;SHT30;40911;51.552;9.874;2022-10-31T09:33:26;15.40;87.77
13796;SHT30;40911;51.552;9.874;2022-10-31T09:35:48;15.50;87.42
13796;SHT30;40911;51.552;9.874;2022-10-31T09:38:11;15.69;86.54
13796;SHT30;40911;51.552;9.874;2022-10-31T09:40:37;15.73;87.04
13796;SHT30;40911;51.552;9.874;2022-10-31T09:43:07;15.91;87.09
13796;SHT30;40911;51.552;9.874;2022-10-31T09:45:36;15.99;87.02
13796;SHT30;40911;51.552;9.874;2022-10-31T09:48:09;16.07;86.43
13796;SHT30;40911;51.552;9.874;2022-10-31T09:50:40;15.67;86.35
13796;SHT30;40911;51.552;9.874;2022-10-31T09:53:07;16.07;87.46
13796;SHT30;40911;51.552;9.874;2022-10-31T09:55:36;16.05;87.13
13796;SHT30;40911;51.552;9.874;2022-10-31T09:57:59;15.97;86.87
13796;SHT30;40911;51.552;9.874;2022-10-31T10:00:22;15.77;86.06
13796;SHT30;40911;51.552;9.874;2022-10-31T10:02:48;16.25;85.95
13796;SHT30;40911;51.552;9.874;2022-10-31T10:05:12;16.21;86.06
13796;SHT30;40911;51.552;9.874;2022-10-31T10:07:41;16.67;86.05
13796;SHT30;40911;51.552;9.874;2022-10-31T10:10:14;16.78;85.92
13796;SHT30;40911;51.552;9.874;2022-10-31T10:12:46;17.04;85.64
13796;SHT30;40911;51.552;9.874;2022-10-31T10:15:29;16.98;84.95
13796;SHT30;40911;51.552;9.874;2022-10-31T10:17:59;17.04;85.31
13796;SHT30;40911;51.552;9.874;2022-10-31T10:20:31;16.88;84.89
13796;SHT30;40911;51.552;9.874;2022-10-31T10:23:07;16.94;85.05
13796;SHT30;40911;51.552;9.874;2022-10-31T10:25:34;16.88;84.10
13796;SHT30;40911;51.552;9.874;2022-10-31T10:28:08;16.95;84.69
13796;SHT30;40911;51.552;9.874;2022-10-31T10:30:35;17.25;83.75
13796;SHT30;40911;51.552;9.874;2022-10-31T10:33:05;16.77;84.31
13796;SHT30;40911;51.552;9.874;2022-10-31T10:35:32;16.90;84.00
13796;SHT30;40911;51.552;9.874;2022-10-31T10:37:58;17.24;84.19
13796;SHT30;40911;51.552;9.874;2022-10-31T10:40:23;17.43;83.78
13796;SHT30;40911;51.552;9.874;2022-10-31T10:42:58;17.49;83.56
13796;SHT30;40911;51.552;9.874;2022-10-31T10:45:39;17.16;83.37
13796;SHT30;40911;51.552;9.874;2022-10-31T10:48:29;17.39;83.70
13796;SHT30;40911;51.552;9.874;2022-10-31T10:50:52;17.29;83.74
13796;SHT30;40911;51.552;9.874;2022-10-31T10:53:25;17.18;83.92
13796;SHT30;40911;51.552;9.874;2022-10-31T10:56:00;17.33;84.96
13796;SHT30;40911;51.552;9.874;2022-10-31T10:58:25;17.49;83.48
13796;SHT30;40911;51.552;9.874;2022-10-31T11:00:47;17.28;83.83
13796;SHT30;40911;51.552;9.874;2022-10-31T11:03:10;17.40;84.13
13796;SHT30;40911;51.552;9.874;2022-10-31T11:05:40;17.54;83.35
13796;SHT30;40911;51.552;9.874;2022-10-31T11:08:05;17.39;84.27
13796;SHT30;40911;51.552;9.874;2022-10-31T11:10:28;17.49;82.94
13796;SHT30;40911;51.552;9.874;2022-10-31T11:13:04;17.40;83.86
13796;SHT30;40911;51.552;9.874;2022-10-31T11:15:27;17.62;83.78
13796;SHT30;40911;51.552;9.874;2022-10-31T11:17:51;17.66;83.26
13796;SHT30;40911;51.552;9.874;2022-10-31T11:20:33;17.65;83.87
13796;SHT30;40911;51.552;9.874;2022-10-31T11:23:19;17.70;83.37
13796;SHT30;40911;51.552;9.874;2022-10-31T11:26:17;17.69;82.96
13796;SHT30;40911;51.552;9.874;2022-10-31T11:29:01;17.67;82.87
13796;SHT30;40911;51.552;9.874;2022-10-31T11:31:30;17.81;82.33
13796;SHT30;40911;51.552;9.874;2022-10-31T11:34:51;17.70;82.70
13796;SHT30;40911;51.552;9.874;2022-10-31T11:42:07;17.84;82.82
13796;SHT30;40911;51.552;9.874;2022-10-31T11:44:23;18.04;82.74
13796;SHT30;40911;51.552;9.874;2022-10-31T11:47:09;18.14;82.06
13796;SHT30;40911;51.552;9.874;2022-10-31T11:50:15;18.07;81.25
13796;SHT30;40911;51.552;9.874;2022-10-31T11:53:15;18.17;82.23
13796;SHT30;40911;51.552;9.874;2022-10-31T11:55:46;18.22;82.49
13796;SHT30;40911;51.552;9.874;2022-10-31T11:58:22;18.29;81.81
13796;SHT30;40911;51.552;9.874;2022-10-31T12:00:52;18.29;81.32
13796;SHT30;40911;51.552;9.874;2022-10-31T12:06:20;18.32;81.93
13796;SHT30;40911;51.552;9.874;2022-10-31T12:09:20;18.24;81.70
13796;SHT30;40911;51.552;9.874;2022-10-31T12:25:34;18.28;81.40
13796;SHT30;40911;51.552;9.874;2022-10-31T12:28:39;18.32;80.77
13796;SHT30;40911;51.552;9.874;2022-10-31T12:31:19;18.51;80.72
13796;SHT30;40911;51.552;9.874;2022-10-31T12:34:06;18.48;81.13
13796;SHT30;40911;51.552;9.874;2022-10-31T12:36:59;18.26;82.65
13796;SHT30;40911;51.552;9.874;2022-10-31T12:39:52;18.17;82.82
13796;SHT30;40911;51.552;9.874;2022-10-31T12:42:58;18.25;83.36
13796;SHT30;40911;51.552;9.874;2022-10-31T12:46:11;18.30;82.78
13796;SHT30;40911;51.552;9.874;2022-10-31T12:51:51;18.12;83.60
13796;SHT30;40911;51.552;9.874;2022-10-31T12:54:49;18.07;82.98
13796;SHT30;40911;51.552;9.874;2022-10-31T12:57:33;18.14;83.05
13796;SHT30;40911;51.552;9.874;2022-10-31T13:00:03;18.10;83.17
13796;SHT30;40911;51.552;9.874;2022-10-31T13:02:48;18.17;82.96
13796;SHT30;40911;51.552;9.874;2022-10-31T13:05:19;18.19;82.90
13796;SHT30;40911;51.552;9.874;2022-10-31T13:07:48;18.08;83.23
13796;SHT30;40911;51.552;9.874;2022-10-31T13:13:39;18.08;83.22
13796;SHT30;40911;51.552;9.874;2022-10-31T13:16:07;18.11;83.18
13796;SHT30;40911;51.552;9.874;2022-10-31T13:18:33;18.04;83.63
13796;SHT30;40911;51.552;9.874;2022-10-31T13:20:59;18.12;83.16
13796;SHT30;40911;51.552;9.874;2022-10-31T13:23:27;18.17;83.02
13796;SHT30;40911;51.552;9.874;2022-10-31T13:25:53;18.11;83.03
13796;SHT30;40911;51.552;9.874;2022-10-31T13:28:24;18.12;83.80
13796;SHT30;40911;51.552;9.874;2022-10-31T13:30:51;18.00;83.99
13796;SHT30;40911;51.552;9.874;2022-10-31T13:33:17;18.02;84.16
13796;SHT30;40911;51.552;9.874;2022-10-31T13:35:43;18.11;84.18
13796;SHT30;40911;51.552;9.874;2022-10-31T13:38:18;18.05;84.89
13796;SHT30;40911;51.552;9.874;2022-10-31T13:40:47;18.12;84.51
13796;SHT30;40911;51.552;9.874;2022-10-31T13:43:20;18.15;84.73
13796;SHT30;40911;51.552;9.874;2022-10-31T13:45:54;18.18;84.76
13796;SHT30;40911;51.552;9.874;2022-10-31T13:48:35;18.14;84.98
13796;SHT30;40911;51.552;9.874;2022-10-31T13:51:05;18.12;85.29
13796;SHT30;40911;51.552;9.874;2022-10-31T13:53:40;18.10;84.94
13796;SHT30;40911;51.552;9.874;2022-10-31T13:56:17;18.04;85.13
13796;SHT30;40911;51.552;9.874;2022-10-31T13:58:42;18.07;85.43
13796;SHT30;40911;51.552;9.874;2022-10-31T14:01:18;17.97;86.13
13796;SHT30;40911;51.552;9.874;2022-10-31T14:03:42;18.01;85.76
13796;SHT30;40911;51.552;9.874;2022-10-31T14:06:06;17.91;85.55
13796;SHT30;40911;51.552;9.874;2022-10-31T14:08:31;17.83;86.05
13796;SHT30;40911;51.552;9.874;2022-10-31T14:10:55;17.84;86.02
13796;SHT30;40911;51.552;9.874;2022-10-31T14:13:22;17.71;86.74
13796;SHT30;40911;51.552;9.874;2022-10-31T14:16:04;17.73;86.19
13796;SHT30;40911;51.552;9.874;2022-10-31T14:18:30;17.67;86.80
13796;SHT30;40911;51.552;9.874;2022-10-31T14:21:14;17.52;87.45
13796;SHT30;40911;51.552;9.874;2022-10-31T14:23:39;17.54;87.33
13796;SHT30;40911;51.552;9.874;2022-10-31T14:26:21;17.54;87.22
13796;SHT30;40911;51.552;9.874;2022-10-31T14:28:50;17.39;88.71
13796;SHT30;40911;51.552;9.874;2022-10-31T14:31:29;17.26;88.54
13796;SHT30;40911;51.552;9.874;2022-10-31T14:33:52;17.36;87.89
13796;SHT30;40911;51.552;9.874;2022-10-31T14:36:21;17.42;87.32
13796;SHT30;40911;51.552;9.874;2022-10-31T14:38:52;17.35;87.53
13796;SHT30;40911;51.552;9.874;2022-10-31T14:41:28;17.31;87.68
13796;SHT30;40911;51.552;9.874;2022-10-31T14:44:10;17.18;88.16
13796;SHT30;40911;51.552;9.874;2022-10-31T14:46:43;17.18;88.48
13796;SHT30;40911;51.552;9.874;2022-10-31T14:49:21;17.14;88.21
13796;SHT30;40911;51.552;9.874;2022-10-31T14:51:48;17.31;85.97
13796;SHT30;40911;51.552;9.874;2022-10-31T14:54:14;17.31;86.01
13796;SHT30;40911;51.552;9.874;2022-10-31T14:56:41;17.19;86.39
13796;SHT30;40911;51.552;9.874;2022-10-31T14:59:09;17.22;86.37
13796;SHT30;40911;51.552;9.874;2022-10-31T15:01:36;17.24;86.07
13796;SHT30;40911;51.552;9.874;2022-10-31T15:04:02;17.21;86.12
13796;SHT30;40911;51.552;9.874;2022-10-31T15:06:26;17.18;86.18
13796;SHT30;40911;51.552;9.874;2022-10-31T15:08:51;17.21;86.18
13796;SHT30;40911;51.552;9.874;2022-10-31T15:11:14;17.04;86.65
13796;SHT30;40911;51.552;9.874;2022-10-31T15:13:41;17.07;86.30
13796;SHT30;40911;51.552;9.874;2022-10-31T15:16:09;17.03;86.53
13796;SHT30;40911;51.552;9.874;2022-10-31T15:18:32;16.94;86.76
13796;SHT30;40911;51.552;9.874;2022-10-31T15:20:55;16.95;86.62
13796;SHT30;40911;51.552;9.874;2022-10-31T15:23:21;16.95;86.54
13796;SHT30;40911;51.552;9.874;2022-10-31T15:25:44;16.91;86.75
13796;SHT30;40911;51.552;9.874;2022-10-31T15:28:14;16.90;86.67
13796;SHT30;40911;51.552;9.874;2022-10-31T15:30:36;16.80;86.70
13796;SHT30;40911;51.552;9.874;2022-10-31T15:32:59;16.81;86.51
13796;SHT30;40911;51.552;9.874;2022-10-31T15:35:23;16.77;86.64
13796;SHT30;40911;51.552;9.874;2022-10-31T15:37:46;16.64;87.13
13796;SHT30;40911;51.552;9.874;2022-10-31T15:40:14;16.67;86.75
13796;SHT30;40911;51.552;9.874;2022-10-31T15:42:39;16.60;86.94
13796;SHT30;40911;51.552;9.874;2022-10-31T15:45:04;16.55;87.16
13796;SHT30;40911;51.552;9.874;2022-10-31T15:47:28;16.53;87.16
13796;SHT30;40911;51.552;9.874;2022-10-31T15:49:53;16.45;87.45
13796;SHT30;40911;51.552;9.874;2022-10-31T15:52:21;16.42;87.27
13796;SHT30;40911;51.552;9.874;2022-10-31T15:54:48;16.30;87.65
13796;SHT30;40911;51.552;9.874;2022-10-31T15:57:12;16.35;87.12
13796;SHT30;40911;51.552;9.874;2022-10-31T15:59:34;16.35;87.00
13796;SHT30;40911;51.552;9.874;2022-10-31T16:01:59;16.36;86.62